To NAV CANADA Home Page Login to a new session Search on AWWS site Feedback and Comments Disclaimer Vers la page française équivalente Tips FAQ What's new on the site To the Forecasts and Observations / NOTAM section To "File a Flight Plan" website Publications and other links Update of the User's profile FIC Telephone Numbers My Weather Data Folder Route Weather Data Regional Weather Data Local Weather Data To the Forecasts and Observations / NOTAM section
Request Generated 09/05/2015 at 16:12:52 UTC . Weather information available at that time is displayed.

METAR/TAF

LOURDES-DE-BLANC-SABLON/QC    

METAR CYBX 051600Z 26014G21KT 3SM -RA BR OVC020 13/12 A2970 RMK SC8
SLP058=
SPECI CYBX 051549Z 26015G21KT 4SM -RA BR OVC020 13/12 A2970 RMK SC8
SLP057=
METAR CYBX 051500Z 26014G20KT 15SM OVC040 13/12 A2971 RMK SC8 SLP063=
METAR CYBX 051400Z 25015KT 15SM OVC040 13/12 A2973 RMK SC8 SLP067=

TAF CYBX 051338Z 0514/0602 24015G25KT P6SM SCT020 OVC100 TEMPO
0514/0518 5SM -RA BR SCT006 OVC020 PROB30 0514/0517 OVC006
FM051800 29015G30KT P6SM BKN030 TEMPO 0518/0520 SCT030
FM052000 31012G22KT P6SM SCT030
RMK NXT FCST BY 052000Z=
Your time UTC time
Weather data provided by Environment Canada and NAV CANADA